KDRT/DRT METAR and TAF weather

Enter ICAO airport designator
Station Type Date Time Source
KDRT METAR 2021/09/24 00:53 UTC NOAA

KDRT 240053Z AUTO 12006KT 10SM CLR 29/06 A2995 RMK AO2 SLP135 T02940061


Station Type Date Time Source
KDRT Decoded METAR 2021/09/24 00:53 UTC NOAA

DEL RIO INTERNATIONAL AIRPORT, TX, United States (KDRT) 29-22N 100-55W 313M
Sep 23, 2021 - 08:53 PM EDT / 2021.09.24 0053 UTC
Wind: from the ESE (120 degrees) at 7 MPH (6 KT):0
Visibility: 10 mile(s):0
Sky conditions: clear
Temperature: 84.9 F (29.4 C)
Dew Point: 43.0 F (6.1 C)
Relative Humidity: 22%
Pressure (altimeter): 29.95 in. Hg (1014 hPa)
ob: KDRT 240053Z AUTO 12006KT 10SM CLR 29/06 A2995 RMK AO2 SLP135 T02940061
cycle: 1

Station Type Date Time Source
KDRT TAF 2021/09/23 18:28 UTC NOAA

TAF KDRT 231726Z 2318/2418 14011KT P6SM FEW250

Example: see airport list